sensor_id;sensor_type;location;lat;lon;timestamp;temperature;humidity
67131;HTU21D;54051;53.464;49.532;2023-06-26T00:00:57;14.41;76.08
67131;HTU21D;54051;53.464;49.532;2023-06-26T00:03:23;14.40;75.63
67131;HTU21D;54051;53.464;49.532;2023-06-26T00:05:49;14.42;75.81
67131;HTU21D;54051;53.464;49.532;2023-06-26T00:08:16;14.43;76.16
67131;HTU21D;54051;53.464;49.532;2023-06-26T00:10:42;14.42;75.67
67131;HTU21D;54051;53.464;49.532;2023-06-26T00:13:08;14.44;76.04
67131;HTU21D;54051;53.464;49.532;2023-06-26T00:15:38;14.47;75.59
67131;HTU21D;54051;53.464;49.532;2023-06-26T00:18:06;14.45;75.46
67131;HTU21D;54051;53.464;49.532;2023-06-26T00:20:32;14.47;75.28
67131;HTU21D;54051;53.464;49.532;2023-06-26T00:22:59;14.44;75.20
67131;HTU21D;54051;53.464;49.532;2023-06-26T00:25:25;14.44;75.09
67131;HTU21D;54051;53.464;49.532;2023-06-26T00:27:55;14.44;74.91
67131;HTU21D;54051;53.464;49.532;2023-06-26T00:30:21;14.42;75.12
67131;HTU21D;54051;53.464;49.532;2023-06-26T00:32:47;14.45;75.01
67131;HTU21D;54051;53.464;49.532;2023-06-26T00:35:13;14.50;74.31
67131;HTU21D;54051;53.464;49.532;2023-06-26T00:37:39;14.55;74.30
67131;HTU21D;54051;53.464;49.532;2023-06-26T00:40:06;14.59;73.99
67131;HTU21D;54051;53.464;49.532;2023-06-26T00:42:32;14.63;73.76
67131;HTU21D;54051;53.464;49.532;2023-06-26T00:44:58;14.66;73.83
67131;HTU21D;54051;53.464;49.532;2023-06-26T00:47:24;14.69;73.48
67131;HTU21D;54051;53.464;49.532;2023-06-26T00:49:51;14.71;73.50
67131;HTU21D;54051;53.464;49.532;2023-06-26T00:52:17;14.69;73.86
67131;HTU21D;54051;53.464;49.532;2023-06-26T00:54:44;14.70;73.64
67131;HTU21D;54051;53.464;49.532;2023-06-26T00:57:10;14.72;73.48
67131;HTU21D;54051;53.464;49.532;2023-06-26T00:59:36;14.77;73.63
67131;HTU21D;54051;53.464;49.532;2023-06-26T01:02:03;14.79;73.51
67131;HTU21D;54051;53.464;49.532;2023-06-26T01:04:32;14.86;73.39
67131;HTU21D;54051;53.464;49.532;2023-06-26T01:06:59;14.91;73.31
67131;HTU21D;54051;53.464;49.532;2023-06-26T01:09:27;14.91;73.32
67131;HTU21D;54051;53.464;49.532;2023-06-26T01:11:54;14.94;73.16
67131;HTU21D;54051;53.464;49.532;2023-06-26T01:14:20;15.01;73.05
67131;HTU21D;54051;53.464;49.532;2023-06-26T01:16:48;15.03;73.33
67131;HTU21D;54051;53.464;49.532;2023-06-26T01:19:24;15.08;73.19
67131;HTU21D;54051;53.464;49.532;2023-06-26T01:22:19;15.13;73.01
67131;HTU21D;54051;53.464;49.532;2023-06-26T01:25:01;15.14;72.99
67131;HTU21D;54051;53.464;49.532;2023-06-26T01:27:30;15.18;72.90
67131;HTU21D;54051;53.464;49.532;2023-06-26T01:30:03;15.25;72.35
67131;HTU21D;54051;53.464;49.532;2023-06-26T01:32:31;15.32;72.23
67131;HTU21D;54051;53.464;49.532;2023-06-26T01:35:02;15.43;71.72
67131;HTU21D;54051;53.464;49.532;2023-06-26T01:37:29;15.56;71.24
67131;HTU21D;54051;53.464;49.532;2023-06-26T01:39:55;15.73;70.50
67131;HTU21D;54051;53.464;49.532;2023-06-26T01:42:21;15.95;69.79
67131;HTU21D;54051;53.464;49.532;2023-06-26T01:44:47;16.29;68.82
67131;HTU21D;54051;53.464;49.532;2023-06-26T01:47:16;17.06;65.91
67131;HTU21D;54051;53.464;49.532;2023-06-26T01:50:13;17.97;62.61
67131;HTU21D;54051;53.464;49.532;2023-06-26T01:53:07;18.95;58.87
67131;HTU21D;54051;53.464;49.532;2023-06-26T01:55:47;20.25;55.49
67131;HTU21D;54051;53.464;49.532;2023-06-26T01:58:15;22.13;49.84
67131;HTU21D;54051;53.464;49.532;2023-06-26T02:00:43;23.55;45.35
67131;HTU21D;54051;53.464;49.532;2023-06-26T02:03:09;24.68;42.56
67131;HTU21D;54051;53.464;49.532;2023-06-26T02:05:35;26.11;38.67
67131;HTU21D;54051;53.464;49.532;2023-06-26T02:08:01;27.28;36.69
67131;HTU21D;54051;53.464;49.532;2023-06-26T02:10:29;28.19;34.42
67131;HTU21D;54051;53.464;49.532;2023-06-26T02:12:55;28.84;32.99
67131;HTU21D;54051;53.464;49.532;2023-06-26T02:15:21;28.93;32.89
67131;HTU21D;54051;53.464;49.532;2023-06-26T02:17:47;29.35;31.71
67131;HTU21D;54051;53.464;49.532;2023-06-26T02:20:14;29.23;32.19
67131;HTU21D;54051;53.464;49.532;2023-06-26T02:22:41;29.19;32.06
67131;HTU21D;54051;53.464;49.532;2023-06-26T02:25:09;29.22;32.06
67131;HTU21D;54051;53.464;49.532;2023-06-26T02:27:35;29.97;31.20
67131;HTU21D;54051;53.464;49.532;2023-06-26T02:30:02;30.60;29.88
67131;HTU21D;54051;53.464;49.532;2023-06-26T02:32:28;30.53;29.58
67131;HTU21D;54051;53.464;49.532;2023-06-26T02:34:54;30.91;28.68
67131;HTU21D;54051;53.464;49.532;2023-06-26T02:37:20;30.57;29.36
67131;HTU21D;54051;53.464;49.532;2023-06-26T02:39:46;30.71;29.48
67131;HTU21D;54051;53.464;49.532;2023-06-26T02:42:12;30.81;29.42
67131;HTU21D;54051;53.464;49.532;2023-06-26T02:44:38;30.90;29.10
67131;HTU21D;54051;53.464;49.532;2023-06-26T02:47:05;31.22;28.84
67131;HTU21D;54051;53.464;49.532;2023-06-26T02:49:31;31.82;27.44
67131;HTU21D;54051;53.464;49.532;2023-06-26T02:51:57;32.32;26.88
67131;HTU21D;54051;53.464;49.532;2023-06-26T02:54:23;32.03;27.45
67131;HTU21D;54051;53.464;49.532;2023-06-26T02:56:49;31.07;29.51
67131;HTU21D;54051;53.464;49.532;2023-06-26T02:59:15;29.98;31.45
67131;HTU21D;54051;53.464;49.532;2023-06-26T03:01:42;29.80;31.81
67131;HTU21D;54051;53.464;49.532;2023-06-26T03:04:08;30.11;31.17
67131;HTU21D;54051;53.464;49.532;2023-06-26T03:06:34;30.67;30.15
67131;HTU21D;54051;53.464;49.532;2023-06-26T03:09:00;31.55;28.06
67131;HTU21D;54051;53.464;49.532;2023-06-26T03:11:27;32.00;27.55
67131;HTU21D;54051;53.464;49.532;2023-06-26T03:13:53;32.70;26.03
67131;HTU21D;54051;53.464;49.532;2023-06-26T03:16:19;32.35;27.46
67131;HTU21D;54051;53.464;49.532;2023-06-26T03:18:45;32.82;26.49
67131;HTU21D;54051;53.464;49.532;2023-06-26T03:21:11;33.89;24.33
67131;HTU21D;54051;53.464;49.532;2023-06-26T03:23:37;31.94;26.97
67131;HTU21D;54051;53.464;49.532;2023-06-26T03:26:03;28.99;32.73
67131;HTU21D;54051;53.464;49.532;2023-06-26T03:28:29;27.12;36.50
67131;HTU21D;54051;53.464;49.532;2023-06-26T03:30:57;26.50;37.97
67131;HTU21D;54051;53.464;49.532;2023-06-26T03:33:23;26.21;38.92
67131;HTU21D;54051;53.464;49.532;2023-06-26T03:35:49;26.82;38.08
67131;HTU21D;54051;53.464;49.532;2023-06-26T03:38:15;28.12;35.24
67131;HTU21D;54051;53.464;49.532;2023-06-26T03:40:41;30.00;31.11
67131;HTU21D;54051;53.464;49.532;2023-06-26T03:43:07;30.33;30.74
67131;HTU21D;54051;53.464;49.532;2023-06-26T03:45:33;29.95;31.46
67131;HTU21D;54051;53.464;49.532;2023-06-26T03:47:59;31.46;29.00
67131;HTU21D;54051;53.464;49.532;2023-06-26T03:50:25;32.02;28.30
67131;HTU21D;54051;53.464;49.532;2023-06-26T03:52:51;33.88;24.81
67131;HTU21D;54051;53.464;49.532;2023-06-26T03:55:18;32.28;27.34
67131;HTU21D;54051;53.464;49.532;2023-06-26T03:57:44;34.02;24.67
67131;HTU21D;54051;53.464;49.532;2023-06-26T04:00:10;36.30;21.38
67131;HTU21D;54051;53.464;49.532;2023-06-26T04:02:38;37.16;19.12
67131;HTU21D;54051;53.464;49.532;2023-06-26T04:05:04;36.17;20.58
67131;HTU21D;54051;53.464;49.532;2023-06-26T04:07:31;36.97;19.98
67131;HTU21D;54051;53.464;49.532;2023-06-26T04:09:57;38.28;18.15
67131;HTU21D;54051;53.464;49.532;2023-06-26T04:12:24;39.47;17.05
67131;HTU21D;54051;53.464;49.532;2023-06-26T04:14:50;39.83;16.35
67131;HTU21D;54051;53.464;49.532;2023-06-26T04:17:16;40.02;16.19
67131;HTU21D;54051;53.464;49.532;2023-06-26T04:19:42;40.31;15.57
67131;HTU21D;54051;53.464;49.532;2023-06-26T04:22:08;40.93;14.79
67131;HTU21D;54051;53.464;49.532;2023-06-26T04:24:35;41.06;14.73
67131;HTU21D;54051;53.464;49.532;2023-06-26T04:27:01;41.00;15.01
67131;HTU21D;54051;53.464;49.532;2023-06-26T04:29:27;41.28;14.17
67131;HTU21D;54051;53.464;49.532;2023-06-26T04:31:54;40.54;15.25
67131;HTU21D;54051;53.464;49.532;2023-06-26T04:34:27;40.90;14.14
67131;HTU21D;54051;53.464;49.532;2023-06-26T04:36:54;40.80;14.12
67131;HTU21D;54051;53.464;49.532;2023-06-26T04:39:20;40.55;14.95
67131;HTU21D;54051;53.464;49.532;2023-06-26T04:41:46;41.42;13.81
67131;HTU21D;54051;53.464;49.532;2023-06-26T04:44:12;42.02;12.84
67131;HTU21D;54051;53.464;49.532;2023-06-26T04:46:38;41.87;13.01
67131;HTU21D;54051;53.464;49.532;2023-06-26T04:49:10;41.84;12.72
67131;HTU21D;54051;53.464;49.532;2023-06-26T04:51:36;41.75;12.71
67131;HTU21D;54051;53.464;49.532;2023-06-26T04:54:08;41.30;13.39
67131;HTU21D;54051;53.464;49.532;2023-06-26T04:56:35;42.06;13.12
67131;HTU21D;54051;53.464;49.532;2023-06-26T04:59:01;41.58;12.52
67131;HTU21D;54051;53.464;49.532;2023-06-26T05:01:29;40.92;12.76
67131;HTU21D;54051;53.464;49.532;2023-06-26T05:03:56;41.18;12.77
67131;HTU21D;54051;53.464;49.532;2023-06-26T05:06:22;41.09;12.80
67131;HTU21D;54051;53.464;49.532;2023-06-26T05:08:48;40.98;12.62
67131;HTU21D;54051;53.464;49.532;2023-06-26T05:11:15;40.91;13.00
67131;HTU21D;54051;53.464;49.532;2023-06-26T05:13:42;41.16;12.91
67131;HTU21D;54051;53.464;49.532;2023-06-26T05:16:09;40.74;13.20
67131;HTU21D;54051;53.464;49.532;2023-06-26T05:18:35;41.32;12.28
67131;HTU21D;54051;53.464;49.532;2023-06-26T05:21:02;41.14;12.07
67131;HTU21D;54051;53.464;49.532;2023-06-26T05:23:32;40.89;12.56
67131;HTU21D;54051;53.464;49.532;2023-06-26T05:26:02;41.41;12.41
67131;HTU21D;54051;53.464;49.532;2023-06-26T05:28:29;42.08;12.07
67131;HTU21D;54051;53.464;49.532;2023-06-26T05:30:59;42.20;11.45
67131;HTU21D;54051;53.464;49.532;2023-06-26T05:33:26;41.45;11.11
67131;HTU21D;54051;53.464;49.532;2023-06-26T05:35:53;40.01;12.47
67131;HTU21D;54051;53.464;49.532;2023-06-26T05:38:20;40.29;11.83
67131;HTU21D;54051;53.464;49.532;2023-06-26T05:40:46;39.82;12.47
67131;HTU21D;54051;53.464;49.532;2023-06-26T05:43:13;39.99;11.75
67131;HTU21D;54051;53.464;49.532;2023-06-26T05:45:40;40.61;11.64
67131;HTU21D;54051;53.464;49.532;2023-06-26T05:48:06;41.07;11.63
67131;HTU21D;54051;53.464;49.532;2023-06-26T05:50:33;41.00;11.56
67131;HTU21D;54051;53.464;49.532;2023-06-26T05:52:59;41.54;11.36
67131;HTU21D;54051;53.464;49.532;2023-06-26T05:55:29;41.75;11.07
67131;HTU21D;54051;53.464;49.532;2023-06-26T05:57:57;40.59;11.91
67131;HTU21D;54051;53.464;49.532;2023-06-26T06:00:25;40.26;12.16
67131;HTU21D;54051;53.464;49.532;2023-06-26T06:02:52;39.09;13.72
67131;HTU21D;54051;53.464;49.532;2023-06-26T06:05:22;40.29;12.81
67131;HTU21D;54051;53.464;49.532;2023-06-26T06:07:49;39.77;11.58
67131;HTU21D;54051;53.464;49.532;2023-06-26T06:10:16;40.57;10.81
67131;HTU21D;54051;53.464;49.532;2023-06-26T06:12:42;40.25;11.76
67131;HTU21D;54051;53.464;49.532;2023-06-26T06:15:08;40.73;10.92
67131;HTU21D;54051;53.464;49.532;2023-06-26T06:17:34;39.89;11.24
67131;HTU21D;54051;53.464;49.532;2023-06-26T06:20:00;39.62;11.17
67131;HTU21D;54051;53.464;49.532;2023-06-26T06:22:26;38.97;12.33
67131;HTU21D;54051;53.464;49.532;2023-06-26T06:24:53;39.78;12.04
67131;HTU21D;54051;53.464;49.532;2023-06-26T06:27:19;40.91;10.80
67131;HTU21D;54051;53.464;49.532;2023-06-26T06:29:45;41.36;10.82
67131;HTU21D;54051;53.464;49.532;2023-06-26T06:32:11;41.27;11.44
67131;HTU21D;54051;53.464;49.532;2023-06-26T06:34:37;42.13;10.32
67131;HTU21D;54051;53.464;49.532;2023-06-26T06:37:04;39.59;12.62
67131;HTU21D;54051;53.464;49.532;2023-06-26T06:39:30;37.19;15.59
67131;HTU21D;54051;53.464;49.532;2023-06-26T06:41:56;38.34;12.41
67131;HTU21D;54051;53.464;49.532;2023-06-26T06:44:22;37.11;14.03
67131;HTU21D;54051;53.464;49.532;2023-06-26T06:46:48;38.56;12.84
67131;HTU21D;54051;53.464;49.532;2023-06-26T06:49:14;38.52;10.75
67131;HTU21D;54051;53.464;49.532;2023-06-26T06:51:41;39.66;10.29
67131;HTU21D;54051;53.464;49.532;2023-06-26T06:54:07;39.58;10.47
67131;HTU21D;54051;53.464;49.532;2023-06-26T06:56:33;39.35;10.12
67131;HTU21D;54051;53.464;49.532;2023-06-26T06:58:59;38.22;11.48
67131;HTU21D;54051;53.464;49.532;2023-06-26T07:01:25;38.77;10.94
67131;HTU21D;54051;53.464;49.532;2023-06-26T07:03:51;39.49;9.72
67131;HTU21D;54051;53.464;49.532;2023-06-26T07:06:17;39.63;9.68
67131;HTU21D;54051;53.464;49.532;2023-06-26T07:08:43;39.58;10.34
67131;HTU21D;54051;53.464;49.532;2023-06-26T07:11:09;40.11;10.05
67131;HTU21D;54051;53.464;49.532;2023-06-26T07:13:35;39.74;10.31
67131;HTU21D;54051;53.464;49.532;2023-06-26T07:16:02;39.76;9.84
67131;HTU21D;54051;53.464;49.532;2023-06-26T07:18:28;40.31;10.22
67131;HTU21D;54051;53.464;49.532;2023-06-26T07:20:54;39.81;9.32
67131;HTU21D;54051;53.464;49.532;2023-06-26T07:23:20;34.54;14.36
67131;HTU21D;54051;53.464;49.532;2023-06-26T07:25:46;35.31;14.51
67131;HTU21D;54051;53.464;49.532;2023-06-26T07:28:13;36.44;12.30
67131;HTU21D;54051;53.464;49.532;2023-06-26T07:30:39;37.78;11.09
67131;HTU21D;54051;53.464;49.532;2023-06-26T07:33:05;37.99;10.17
67131;HTU21D;54051;53.464;49.532;2023-06-26T07:35:33;37.38;11.16
67131;HTU21D;54051;53.464;49.532;2023-06-26T07:37:59;37.66;11.75
67131;HTU21D;54051;53.464;49.532;2023-06-26T07:40:26;37.94;10.59
67131;HTU21D;54051;53.464;49.532;2023-06-26T07:42:52;37.90;11.04
67131;HTU21D;54051;53.464;49.532;2023-06-26T07:45:19;34.40;14.82
67131;HTU21D;54051;53.464;49.532;2023-06-26T07:47:45;35.44;12.78
67131;HTU21D;54051;53.464;49.532;2023-06-26T07:50:11;36.53;11.96
67131;HTU21D;54051;53.464;49.532;2023-06-26T07:52:37;37.61;11.28
67131;HTU21D;54051;53.464;49.532;2023-06-26T07:55:04;38.61;11.14
67131;HTU21D;54051;53.464;49.532;2023-06-26T07:57:30;37.71;11.32
67131;HTU21D;54051;53.464;49.532;2023-06-26T07:59:57;37.29;12.25
67131;HTU21D;54051;53.464;49.532;2023-06-26T08:02:24;33.63;15.98
67131;HTU21D;54051;53.464;49.532;2023-06-26T08:04:50;32.45;17.09
67131;HTU21D;54051;53.464;49.532;2023-06-26T08:07:16;31.73;18.66
67131;HTU21D;54051;53.464;49.532;2023-06-26T08:09:42;31.02;19.63
67131;HTU21D;54051;53.464;49.532;2023-06-26T08:12:08;31.39;18.73
67131;HTU21D;54051;53.464;49.532;2023-06-26T08:14:35;31.25;19.21
67131;HTU21D;54051;53.464;49.532;2023-06-26T08:17:01;31.48;19.24
67131;HTU21D;54051;53.464;49.532;2023-06-26T08:19:27;31.45;18.77
67131;HTU21D;54051;53.464;49.532;2023-06-26T08:21:53;31.35;16.67
67131;HTU21D;54051;53.464;49.532;2023-06-26T08:24:19;29.95;18.94
67131;HTU21D;54051;53.464;49.532;2023-06-26T08:26:45;29.58;20.46
67131;HTU21D;54051;53.464;49.532;2023-06-26T08:29:12;29.12;19.86
67131;HTU21D;54051;53.464;49.532;2023-06-26T08:31:39;28.67;20.18
67131;HTU21D;54051;53.464;49.532;2023-06-26T08:34:06;28.16;22.18
67131;HTU21D;54051;53.464;49.532;2023-06-26T08:36:32;27.78;23.07
67131;HTU21D;54051;53.464;49.532;2023-06-26T08:38:58;27.60;24.09
67131;HTU21D;54051;53.464;49.532;2023-06-26T08:41:25;27.69;24.10
67131;HTU21D;54051;53.464;49.532;2023-06-26T08:43:51;27.97;22.82
67131;HTU21D;54051;53.464;49.532;2023-06-26T08:46:19;28.05;22.66
67131;HTU21D;54051;53.464;49.532;2023-06-26T08:48:48;28.53;22.57
67131;HTU21D;54051;53.464;49.532;2023-06-26T08:51:17;28.68;21.98
67131;HTU21D;54051;53.464;49.532;2023-06-26T08:53:52;27.94;22.59
67131;HTU21D;54051;53.464;49.532;2023-06-26T08:56:22;26.99;24.20
67131;HTU21D;54051;53.464;49.532;2023-06-26T08:58:49;26.95;25.07
67131;HTU21D;54051;53.464;49.532;2023-06-26T09:01:16;27.10;24.75
67131;HTU21D;54051;53.464;49.532;2023-06-26T09:03:43;27.08;25.67
67131;HTU21D;54051;53.464;49.532;2023-06-26T09:06:10;27.09;25.54
67131;HTU21D;54051;53.464;49.532;2023-06-26T09:08:36;27.27;24.70
67131;HTU21D;54051;53.464;49.532;2023-06-26T09:11:02;27.19;25.98
67131;HTU21D;54051;53.464;49.532;2023-06-26T09:13:30;27.09;25.04
67131;HTU21D;54051;53.464;49.532;2023-06-26T09:15:56;27.05;26.43
67131;HTU21D;54051;53.464;49.532;2023-06-26T09:18:22;27.15;25.88
67131;HTU21D;54051;53.464;49.532;2023-06-26T09:20:49;27.55;25.35
67131;HTU21D;54051;53.464;49.532;2023-06-26T09:23:16;27.76;24.81
67131;HTU21D;54051;53.464;49.532;2023-06-26T09:25:42;27.87;24.01
67131;HTU21D;54051;53.464;49.532;2023-06-26T09:28:10;27.95;24.15
67131;HTU21D;54051;53.464;49.532;2023-06-26T09:30:37;27.76;23.53
67131;HTU21D;54051;53.464;49.532;2023-06-26T09:33:21;27.72;23.98
67131;HTU21D;54051;53.464;49.532;2023-06-26T09:35:47;27.56;25.02
67131;HTU21D;54051;53.464;49.532;2023-06-26T09:38:14;27.80;24.88
67131;HTU21D;54051;53.464;49.532;2023-06-26T09:40:44;27.89;24.20
67131;HTU21D;54051;53.464;49.532;2023-06-26T09:43:13;27.60;25.23
67131;HTU21D;54051;53.464;49.532;2023-06-26T09:45:40;27.22;23.93
67131;HTU21D;54051;53.464;49.532;2023-06-26T09:48:06;27.12;24.89
67131;HTU21D;54051;53.464;49.532;2023-06-26T09:50:34;26.92;25.56
67131;HTU21D;54051;53.464;49.532;2023-06-26T09:53:09;26.62;26.17
67131;HTU21D;54051;53.464;49.532;2023-06-26T09:55:36;26.57;26.27
67131;HTU21D;54051;53.464;49.532;2023-06-26T09:58:03;26.30;26.71
67131;HTU21D;54051;53.464;49.532;2023-06-26T10:00:33;26.43;26.91
67131;HTU21D;54051;53.464;49.532;2023-06-26T10:02:59;26.66;27.02
67131;HTU21D;54051;53.464;49.532;2023-06-26T10:05:26;26.66;26.17
67131;HTU21D;54051;53.464;49.532;2023-06-26T10:07:54;26.79;26.01
67131;HTU21D;54051;53.464;49.532;2023-06-26T10:10:22;26.73;26.06
67131;HTU21D;54051;53.464;49.532;2023-06-26T10:12:54;26.81;26.43
67131;HTU21D;54051;53.464;49.532;2023-06-26T10:15:25;26.67;26.68
67131;HTU21D;54051;53.464;49.532;2023-06-26T10:17:56;26.47;26.97
67131;HTU21D;54051;53.464;49.532;2023-06-26T10:20:26;26.19;27.13
67131;HTU21D;54051;53.464;49.532;2023-06-26T10:22:54;26.26;27.36
67131;HTU21D;54051;53.464;49.532;2023-06-26T10:25:23;26.79;26.37
67131;HTU21D;54051;53.464;49.532;2023-06-26T10:28:02;26.95;25.36
67131;HTU21D;54051;53.464;49.532;2023-06-26T10:30:33;26.89;25.17
67131;HTU21D;54051;53.464;49.532;2023-06-26T10:33:00;26.64;26.01
67131;HTU21D;54051;53.464;49.532;2023-06-26T10:35:28;26.50;25.96
67131;HTU21D;54051;53.464;49.532;2023-06-26T10:38:00;26.64;26.12
67131;HTU21D;54051;53.464;49.532;2023-06-26T10:40:28;26.49;25.36
67131;HTU21D;54051;53.464;49.532;2023-06-26T10:43:06;26.38;26.17
67131;HTU21D;54051;53.464;49.532;2023-06-26T10:45:36;26.56;27.00
67131;HTU21D;54051;53.464;49.532;2023-06-26T10:48:03;26.72;26.66
67131;HTU21D;54051;53.464;49.532;2023-06-26T10:50:33;26.75;25.81
67131;HTU21D;54051;53.464;49.532;2023-06-26T10:53:22;26.62;24.78
67131;HTU21D;54051;53.464;49.532;2023-06-26T10:56:04;26.20;25.84
67131;HTU21D;54051;53.464;49.532;2023-06-26T10:58:40;25.88;26.81
67131;HTU21D;54051;53.464;49.532;2023-06-26T11:01:26;25.53;27.33
67131;HTU21D;54051;53.464;49.532;2023-06-26T11:04:06;25.12;28.29
67131;HTU21D;54051;53.464;49.532;2023-06-26T11:06:35;24.87;29.10
67131;HTU21D;54051;53.464;49.532;2023-06-26T11:14:22;26.03;25.61
67131;HTU21D;54051;53.464;49.532;2023-06-26T11:16:49;25.90;26.88
67131;HTU21D;54051;53.464;49.532;2023-06-26T11:19:16;25.78;27.11
67131;HTU21D;54051;53.464;49.532;2023-06-26T11:21:42;25.60;27.23
67131;HTU21D;54051;53.464;49.532;2023-06-26T11:24:13;25.22;28.00
67131;HTU21D;54051;53.464;49.532;2023-06-26T11:26:41;25.00;27.99
67131;HTU21D;54051;53.464;49.532;2023-06-26T11:29:08;25.03;28.92
67131;HTU21D;54051;53.464;49.532;2023-06-26T11:31:36;25.13;28.05
67131;HTU21D;54051;53.464;49.532;2023-06-26T11:34:12;25.01;28.62
67131;HTU21D;54051;53.464;49.532;2023-06-26T11:36:39;24.62;30.18
67131;HTU21D;54051;53.464;49.532;2023-06-26T11:39:08;24.45;29.97
67131;HTU21D;54051;53.464;49.532;2023-06-26T11:41:38;24.49;29.03
67131;HTU21D;54051;53.464;49.532;2023-06-26T11:44:09;24.61;28.65
67131;HTU21D;54051;53.464;49.532;2023-06-26T11:46:36;24.93;29.48
67131;HTU21D;54051;53.464;49.532;2023-06-26T11:49:07;25.39;27.40
67131;HTU21D;54051;53.464;49.532;2023-06-26T11:51:34;25.43;27.08
67131;HTU21D;54051;53.464;49.532;2023-06-26T11:54:02;25.45;27.04
67131;HTU21D;54051;53.464;49.532;2023-06-26T11:56:30;25.46;27.54
67131;HTU21D;54051;53.464;49.532;2023-06-26T11:59:02;25.23;28.32
67131;HTU21D;54051;53.464;49.532;2023-06-26T12:01:34;25.19;28.01
67131;HTU21D;54051;53.464;49.532;2023-06-26T12:04:05;25.17;28.03
67131;HTU21D;54051;53.464;49.532;2023-06-26T12:06:37;25.18;27.66
67131;HTU21D;54051;53.464;49.532;2023-06-26T12:09:10;25.15;26.31
67131;HTU21D;54051;53.464;49.532;2023-06-26T12:11:46;25.04;26.68
67131;HTU21D;54051;53.464;49.532;2023-06-26T12:14:17;24.75;27.65
67131;HTU21D;54051;53.464;49.532;2023-06-26T12:16:55;24.25;28.24
67131;HTU21D;54051;53.464;49.532;2023-06-26T12:19:33;23.98;28.61
67131;HTU21D;54051;53.464;49.532;2023-06-26T12:22:10;23.96;28.83
67131;HTU21D;54051;53.464;49.532;2023-06-26T12:24:43;24.25;27.95
67131;HTU21D;54051;53.464;49.532;2023-06-26T12:27:17;24.38;27.55
67131;HTU21D;54051;53.464;49.532;2023-06-26T12:29:51;24.65;27.15
67131;HTU21D;54051;53.464;49.532;2023-06-26T12:32:25;24.55;26.50
67131;HTU21D;54051;53.464;49.532;2023-06-26T12:34:56;24.18;26.66
67131;HTU21D;54051;53.464;49.532;2023-06-26T12:37:22;24.19;26.94
67131;HTU21D;54051;53.464;49.532;2023-06-26T12:39:56;24.29;27.12
67131;HTU21D;54051;53.464;49.532;2023-06-26T12:42:27;24.33;25.82
67131;HTU21D;54051;53.464;49.532;2023-06-26T12:44:54;24.41;26.07
67131;HTU21D;54051;53.464;49.532;2023-06-26T12:47:28;24.29;26.85
67131;HTU21D;54051;53.464;49.532;2023-06-26T12:49:57;24.12;27.00
67131;HTU21D;54051;53.464;49.532;2023-06-26T12:52:23;24.02;27.10
67131;HTU21D;54051;53.464;49.532;2023-06-26T12:54:53;23.97;26.16
67131;HTU21D;54051;53.464;49.532;2023-06-26T12:57:21;24.06;24.94
67131;HTU21D;54051;53.464;49.532;2023-06-26T12:59:48;24.30;24.29
67131;HTU21D;54051;53.464;49.532;2023-06-26T13:02:14;24.49;23.03
67131;HTU21D;54051;53.464;49.532;2023-06-26T13:04:40;24.58;23.67
67131;HTU21D;54051;53.464;49.532;2023-06-26T13:07:08;24.64;23.02
67131;HTU21D;54051;53.464;49.532;2023-06-26T13:09:35;24.62;23.45
67131;HTU21D;54051;53.464;49.532;2023-06-26T13:12:04;24.60;24.20
67131;HTU21D;54051;53.464;49.532;2023-06-26T13:14:31;24.66;24.66
67131;HTU21D;54051;53.464;49.532;2023-06-26T13:17:00;24.56;25.19
67131;HTU21D;54051;53.464;49.532;2023-06-26T13:19:27;24.83;24.85
67131;HTU21D;54051;53.464;49.532;2023-06-26T13:21:53;25.00;24.65
67131;HTU21D;54051;53.464;49.532;2023-06-26T13:24:20;25.16;23.99
67131;HTU21D;54051;53.464;49.532;2023-06-26T13:26:46;25.28;24.21
67131;HTU21D;54051;53.464;49.532;2023-06-26T13:29:12;25.37;24.32
67131;HTU21D;54051;53.464;49.532;2023-06-26T13:31:38;25.45;24.01
67131;HTU21D;54051;53.464;49.532;2023-06-26T13:34:04;25.63;23.94
67131;HTU21D;54051;53.464;49.532;2023-06-26T13:36:33;25.65;23.36
67131;HTU21D;54051;53.464;49.532;2023-06-26T13:39:05;25.43;24.65
67131;HTU21D;54051;53.464;49.532;2023-06-26T13:41:31;25.42;24.17
67131;HTU21D;54051;53.464;49.532;2023-06-26T13:43:57;25.38;24.80
67131;HTU21D;54051;53.464;49.532;2023-06-26T13:46:23;25.31;24.57
67131;HTU21D;54051;53.464;49.532;2023-06-26T13:48:49;25.35;24.78
67131;HTU21D;54051;53.464;49.532;2023-06-26T13:51:16;25.28;24.05
67131;HTU21D;54051;53.464;49.532;2023-06-26T13:53:45;25.12;24.77
67131;HTU21D;54051;53.464;49.532;2023-06-26T13:56:11;24.74;25.04
67131;HTU21D;54051;53.464;49.532;2023-06-26T13:58:37;24.39;25.44
67131;HTU21D;54051;53.464;49.532;2023-06-26T14:01:05;24.05;27.05
67131;HTU21D;54051;53.464;49.532;2023-06-26T14:03:33;23.85;26.97
67131;HTU21D;54051;53.464;49.532;2023-06-26T14:05:59;23.54;27.04
67131;HTU21D;54051;53.464;49.532;2023-06-26T14:08:25;23.26;27.36
67131;HTU21D;54051;53.464;49.532;2023-06-26T14:10:57;23.10;27.41
67131;HTU21D;54051;53.464;49.532;2023-06-26T14:13:23;22.90;27.61
67131;HTU21D;54051;53.464;49.532;2023-06-26T14:15:49;22.80;28.26
67131;HTU21D;54051;53.464;49.532;2023-06-26T14:18:21;22.78;28.89
67131;HTU21D;54051;53.464;49.532;2023-06-26T14:20:49;22.76;28.99
67131;HTU21D;54051;53.464;49.532;2023-06-26T14:23:15;22.73;28.55
67131;HTU21D;54051;53.464;49.532;2023-06-26T14:25:41;22.70;28.42
67131;HTU21D;54051;53.464;49.532;2023-06-26T14:28:07;22.65;27.51
67131;HTU21D;54051;53.464;49.532;2023-06-26T14:30:33;22.61;29.17
67131;HTU21D;54051;53.464;49.532;2023-06-26T14:33:03;22.75;28.64
67131;HTU21D;54051;53.464;49.532;2023-06-26T14:35:32;23.05;28.87
67131;HTU21D;54051;53.464;49.532;2023-06-26T14:37:58;23.30;26.73
67131;HTU21D;54051;53.464;49.532;2023-06-26T14:40:24;23.36;27.57
67131;HTU21D;54051;53.464;49.532;2023-06-26T14:42:50;23.40;27.45
67131;HTU21D;54051;53.464;49.532;2023-06-26T14:45:16;23.54;28.01
67131;HTU21D;54051;53.464;49.532;2023-06-26T14:47:42;23.65;27.04
67131;HTU21D;54051;53.464;49.532;2023-06-26T14:50:09;23.60;26.57
67131;HTU21D;54051;53.464;49.532;2023-06-26T14:52:38;23.69;27.59
67131;HTU21D;54051;53.464;49.532;2023-06-26T14:55:05;23.73;27.33
67131;HTU21D;54051;53.464;49.532;2023-06-26T14:57:31;23.55;27.30
67131;HTU21D;54051;53.464;49.532;2023-06-26T15:00:04;23.31;27.59
67131;HTU21D;54051;53.464;49.532;2023-06-26T15:02:31;23.15;28.19
67131;HTU21D;54051;53.464;49.532;2023-06-26T15:05:03;23.06;27.76
67131;HTU21D;54051;53.464;49.532;2023-06-26T15:07:29;22.96;27.76
67131;HTU21D;54051;53.464;49.532;2023-06-26T15:09:55;22.88;28.22
67131;HTU21D;54051;53.464;49.532;2023-06-26T15:12:27;22.80;28.51